createdAt,value
2022-07-25T00:00:30.389Z,0.00
2022-07-25T00:01:30.557Z,0.00
2022-07-25T00:02:30.432Z,0.00
2022-07-25T00:03:30.341Z,0.00
2022-07-25T00:04:30.396Z,0.00
2022-07-25T00:05:34.453Z,0.00
2022-07-25T00:06:31.297Z,0.00
2022-07-25T00:07:30.278Z,0.00
2022-07-25T00:08:30.259Z,0.00
2022-07-25T00:09:30.301Z,0.00
2022-07-25T00:10:30.278Z,0.00
2022-07-25T00:11:30.231Z,0.00
2022-07-25T00:12:30.204Z,0.00
2022-07-25T00:13:30.260Z,0.00
2022-07-25T00:14:30.181Z,0.00
2022-07-25T00:15:30.190Z,0.00
2022-07-25T00:16:30.220Z,0.00
2022-07-25T00:17:30.149Z,0.00
2022-07-25T00:18:30.143Z,0.00
2022-07-25T00:19:30.121Z,0.00
2022-07-25T00:20:30.100Z,0.00
2022-07-25T00:21:30.101Z,0.00
2022-07-25T00:22:30.112Z,0.00
2022-07-25T00:23:30.080Z,0.00
2022-07-25T00:24:30.330Z,0.00
2022-07-25T00:25:30.051Z,0.00
2022-07-25T00:26:30.026Z,0.00
2022-07-25T00:27:30.011Z,0.00
2022-07-25T00:28:29.990Z,0.00
2022-07-25T00:29:29.991Z,0.00
2022-07-25T00:30:29.981Z,0.00
2022-07-25T00:31:30.060Z,0.00
2022-07-25T00:32:29.940Z,0.00
2022-07-25T00:33:29.954Z,0.00
2022-07-25T00:34:29.920Z,0.00
2022-07-25T00:35:30.070Z,0.00
2022-07-25T00:36:29.911Z,0.00
2022-07-25T00:37:29.899Z,0.00
2022-07-25T00:38:29.863Z,0.00
2022-07-25T00:39:29.871Z,0.00
2022-07-25T00:40:29.860Z,0.00
2022-07-25T00:41:29.842Z,0.00
2022-07-25T00:42:29.831Z,0.00
2022-07-25T00:43:29.813Z,0.00
2022-07-25T00:44:29.791Z,0.00
2022-07-25T00:45:29.794Z,0.00
2022-07-25T00:46:29.970Z,0.00
2022-07-25T00:47:29.764Z,0.00
2022-07-25T00:48:29.803Z,0.00
2022-07-25T00:49:29.742Z,0.00
2022-07-25T00:50:29.723Z,0.00
2022-07-25T00:51:29.703Z,0.00
2022-07-25T00:52:29.686Z,0.00
2022-07-25T00:53:29.685Z,0.00
2022-07-25T00:54:29.673Z,0.00
2022-07-25T00:55:29.653Z,0.00
2022-07-25T00:56:29.634Z,0.00
2022-07-25T00:57:29.757Z,0.00
2022-07-25T00:58:29.646Z,0.00
2022-07-25T00:59:29.595Z,0.00
2022-07-25T01:00:29.584Z,0.00
2022-07-25T01:01:29.618Z,0.00
2022-07-25T01:02:29.627Z,0.00
2022-07-25T01:03:29.566Z,0.00
2022-07-25T01:04:29.547Z,0.00
2022-07-25T01:05:29.546Z,0.00
2022-07-25T01:06:29.516Z,0.00
2022-07-25T01:07:29.497Z,0.00
2022-07-25T01:08:29.826Z,0.00
2022-07-25T01:09:29.502Z,0.00
2022-07-25T01:10:29.458Z,0.00
2022-07-25T01:11:29.447Z,0.00
2022-07-25T01:12:29.427Z,0.00
2022-07-25T01:13:29.428Z,0.00
2022-07-25T01:14:29.409Z,0.00
2022-07-25T01:15:29.490Z,0.00
2022-07-25T01:16:29.473Z,0.00
2022-07-25T01:17:29.369Z,0.00
2022-07-25T01:18:29.362Z,0.00
2022-07-25T01:19:29.411Z,0.00
2022-07-25T01:20:29.329Z,0.00
2022-07-25T01:21:29.326Z,0.00
2022-07-25T01:22:29.298Z,0.00
2022-07-25T01:23:29.294Z,0.00
2022-07-25T01:24:29.280Z,0.00
2022-07-25T01:25:29.271Z,0.00
2022-07-25T01:26:29.248Z,0.00
2022-07-25T01:27:29.240Z,0.00
2022-07-25T01:28:29.220Z,0.00
2022-07-25T01:29:29.221Z,0.00
2022-07-25T01:30:29.341Z,0.00
2022-07-25T01:31:29.248Z,0.00
2022-07-25T01:32:29.169Z,0.00
2022-07-25T01:33:29.171Z,0.00
2022-07-25T01:34:29.140Z,0.00
2022-07-25T01:35:29.133Z,0.00
2022-07-25T01:36:29.122Z,0.00
2022-07-25T01:37:29.120Z,0.00
2022-07-25T01:38:29.100Z,0.00
2022-07-25T01:39:29.090Z,0.00
2022-07-25T01:40:29.061Z,0.00
2022-07-25T01:41:29.249Z,0.00
2022-07-25T01:42:29.042Z,0.00
2022-07-25T01:43:29.047Z,0.00
2022-07-25T01:44:29.012Z,0.00
2022-07-25T01:45:29.010Z,0.00
2022-07-25T01:46:29.070Z,0.00
2022-07-25T01:47:28.984Z,0.00
2022-07-25T01:48:29.015Z,0.00
2022-07-25T01:49:28.957Z,0.00
2022-07-25T01:50:28.942Z,0.00
2022-07-25T01:51:28.934Z,0.00
2022-07-25T01:52:29.281Z,0.00
2022-07-25T01:53:28.902Z,0.00
2022-07-25T01:54:28.887Z,0.00
2022-07-25T01:55:29.347Z,0.00
2022-07-25T01:56:28.855Z,0.00
2022-07-25T01:57:31.120Z,0.00
2022-07-25T01:58:28.833Z,0.00
2022-07-25T01:59:28.825Z,0.00
2022-07-25T02:00:28.817Z,0.00
2022-07-25T02:01:28.879Z,0.00
2022-07-25T02:02:28.785Z,0.00
2022-07-25T02:03:29.284Z,0.00
2022-07-25T02:04:28.804Z,0.00
2022-07-25T02:05:28.745Z,0.00
2022-07-25T02:06:28.727Z,0.00
2022-07-25T02:07:28.725Z,0.00
2022-07-25T02:08:28.727Z,0.00
2022-07-25T02:09:28.696Z,0.00
2022-07-25T02:10:28.689Z,0.00
2022-07-25T02:11:28.667Z,0.00
2022-07-25T02:12:28.647Z,0.00
2022-07-25T02:13:28.637Z,0.00
2022-07-25T02:14:28.946Z,0.00
2022-07-25T02:15:28.621Z,0.00
2022-07-25T02:16:28.702Z,0.00
2022-07-25T02:17:28.679Z,0.00
2022-07-25T02:18:28.578Z,0.00
2022-07-25T02:19:28.580Z,0.00
2022-07-25T02:20:28.558Z,0.00
2022-07-25T02:21:28.551Z,0.00
2022-07-25T02:22:28.529Z,0.00
2022-07-25T02:23:28.517Z,0.00
2022-07-25T02:24:28.498Z,0.00
2022-07-25T02:25:28.559Z,0.00
2022-07-25T02:26:28.502Z,0.00
2022-07-25T02:27:28.458Z,0.00
2022-07-25T02:28:28.451Z,0.00
2022-07-25T02:29:28.438Z,0.00
2022-07-25T02:30:28.513Z,0.00
2022-07-25T02:31:28.409Z,0.00
2022-07-25T02:32:28.406Z,0.00
2022-07-25T02:33:28.393Z,0.00
2022-07-25T02:34:28.372Z,0.00
2022-07-25T02:35:28.360Z,0.00
2022-07-25T02:36:28.500Z,0.00
2022-07-25T02:37:28.339Z,0.00
2022-07-25T02:38:28.320Z,0.00
2022-07-25T02:39:28.322Z,0.00
2022-07-25T02:40:28.291Z,0.00
2022-07-25T02:41:28.289Z,0.00
2022-07-25T02:42:28.261Z,0.00
2022-07-25T02:43:28.264Z,0.00
2022-07-25T02:44:28.232Z,0.00
2022-07-25T02:45:28.251Z,0.00
2022-07-25T02:46:28.273Z,0.00
2022-07-25T02:47:28.309Z,0.00
2022-07-25T02:48:28.253Z,0.00
2022-07-25T02:49:28.184Z,0.00
2022-07-25T02:50:28.161Z,0.00
2022-07-25T02:51:28.184Z,0.00
2022-07-25T02:52:28.132Z,0.00
2022-07-25T02:53:54.384Z,0.00
2022-07-25T02:54:29.106Z,0.00
2022-07-25T02:55:28.102Z,0.00
2022-07-25T02:56:30.084Z,0.00
2022-07-25T02:57:28.074Z,0.00
2022-07-25T02:58:28.143Z,0.00
2022-07-25T02:59:32.127Z,4.00
2022-07-25T03:00:28.036Z,4.00
2022-07-25T03:01:28.117Z,4.00
2022-07-25T03:02:28.012Z,0.00
2022-07-25T03:03:27.999Z,4.00
2022-07-25T03:04:28.055Z,4.00
2022-07-25T03:05:27.976Z,8.00
2022-07-25T03:06:27.955Z,4.00
2022-07-25T03:07:27.953Z,8.00
2022-07-25T03:08:27.926Z,4.00
2022-07-25T03:09:28.069Z,8.00
2022-07-25T03:10:27.925Z,8.00
2022-07-25T03:11:27.892Z,8.00
2022-07-25T03:12:27.877Z,12.00
2022-07-25T03:13:27.868Z,16.00
2022-07-25T03:14:27.866Z,16.00
2022-07-25T03:15:27.846Z,20.00
2022-07-25T03:16:27.848Z,20.00
2022-07-25T03:17:27.817Z,20.00
2022-07-25T03:18:27.814Z,24.00
2022-07-25T03:19:27.786Z,32.00
2022-07-25T03:20:28.068Z,32.00
2022-07-25T03:21:27.758Z,36.00
2022-07-25T03:22:27.748Z,44.00
2022-07-25T03:23:27.737Z,48.00
2022-07-25T03:24:27.728Z,52.00
2022-07-25T03:25:27.708Z,56.00
2022-07-25T03:26:27.711Z,64.00
2022-07-25T03:27:27.687Z,72.00
2022-07-25T03:28:27.679Z,84.00
2022-07-25T03:29:27.681Z,92.00
2022-07-25T03:30:27.661Z,100.00
2022-07-25T03:31:27.848Z,112.00
2022-07-25T03:32:27.628Z,124.00
2022-07-25T03:33:27.619Z,140.00
2022-07-25T03:34:27.590Z,152.00
2022-07-25T03:35:27.578Z,168.00
2022-07-25T03:36:27.569Z,188.00
2022-07-25T03:37:27.559Z,204.00
2022-07-25T03:38:27.550Z,224.00
2022-07-25T03:39:27.538Z,244.00
2022-07-25T03:40:27.519Z,268.00
2022-07-25T03:41:28.017Z,288.00
2022-07-25T03:42:31.031Z,308.00
2022-07-25T03:43:28.481Z,336.00
2022-07-25T03:44:27.472Z,360.00
2022-07-25T03:45:27.504Z,388.00
2022-07-25T03:46:27.552Z,416.00
2022-07-25T03:47:27.436Z,444.00
2022-07-25T03:48:27.471Z,468.00
2022-07-25T03:49:27.407Z,496.00
2022-07-25T03:50:28.341Z,528.00
2022-07-25T03:51:27.372Z,556.00
2022-07-25T03:52:27.364Z,584.00
2022-07-25T03:53:27.671Z,612.00
2022-07-25T03:54:27.340Z,640.00
2022-07-25T03:55:27.322Z,672.00
2022-07-25T03:56:27.312Z,700.00
2022-07-25T03:57:27.292Z,728.00
2022-07-25T03:58:27.292Z,756.00
2022-07-25T03:59:27.272Z,784.00
2022-07-25T04:00:27.277Z,816.00
2022-07-25T04:01:27.315Z,844.00
2022-07-25T04:02:27.291Z,868.00
2022-07-25T04:03:27.236Z,896.00
2022-07-25T04:04:27.443Z,928.00
2022-07-25T04:05:27.193Z,956.00
2022-07-25T04:06:27.175Z,984.00
2022-07-25T04:07:27.174Z,1012.00
2022-07-25T04:08:27.153Z,1040.00
2022-07-25T04:09:27.134Z,1068.00
2022-07-25T04:10:28.150Z,1096.00
2022-07-25T04:11:27.124Z,1124.00
2022-07-25T04:12:27.118Z,1152.00
2022-07-25T04:13:27.086Z,1176.00
2022-07-25T04:14:27.106Z,1204.00
2022-07-25T04:15:27.317Z,1232.00
2022-07-25T04:16:27.863Z,1256.00
2022-07-25T04:17:27.035Z,1280.00
2022-07-25T04:18:28.735Z,1304.00
2022-07-25T04:19:28.877Z,1328.00
2022-07-25T04:20:27.007Z,1352.00
2022-07-25T04:21:26.985Z,1372.00
2022-07-25T04:22:27.002Z,1400.00
2022-07-25T04:23:26.955Z,1424.00
2022-07-25T04:24:26.966Z,1444.00
2022-07-25T04:25:26.935Z,1468.00
2022-07-25T04:26:26.998Z,1496.00
2022-07-25T04:27:26.909Z,1520.00
2022-07-25T04:28:26.926Z,1540.00
2022-07-25T04:29:26.880Z,1568.00
2022-07-25T04:30:26.891Z,1588.00
2022-07-25T04:31:26.942Z,1616.00
2022-07-25T04:32:26.891Z,1644.00
2022-07-25T04:33:26.829Z,1664.00
2022-07-25T04:34:26.819Z,1688.00
2022-07-25T04:35:26.814Z,1716.00
2022-07-25T04:36:26.803Z,1740.00
2022-07-25T04:37:26.968Z,1764.00
2022-07-25T04:38:26.780Z,1792.00
2022-07-25T04:39:26.748Z,1812.00
2022-07-25T04:40:26.780Z,1836.00
2022-07-25T04:41:26.731Z,1864.00
2022-07-25T04:42:26.719Z,1884.00
2022-07-25T04:43:26.716Z,1904.00
2022-07-25T04:44:26.698Z,1932.00
2022-07-25T04:45:26.711Z,1956.00
2022-07-25T04:46:26.689Z,1976.00
2022-07-25T04:47:26.682Z,2004.00
2022-07-25T04:48:26.871Z,2028.00
2022-07-25T04:49:26.629Z,2052.00
2022-07-25T04:50:26.620Z,2076.00
2022-07-25T04:51:26.601Z,2100.00
2022-07-25T04:52:26.592Z,2120.00
2022-07-25T04:53:26.563Z,2140.00
2022-07-25T04:54:26.560Z,2160.00
2022-07-25T04:55:26.547Z,2180.00
2022-07-25T04:56:26.575Z,2196.00
2022-07-25T04:57:26.512Z,2212.00
2022-07-25T04:58:26.512Z,2232.00
2022-07-25T04:59:26.674Z,2248.00
2022-07-25T05:00:26.482Z,2260.00
2022-07-25T05:01:26.533Z,2280.00
2022-07-25T05:02:26.491Z,2300.00
2022-07-25T05:03:26.455Z,2316.00
2022-07-25T05:04:26.432Z,2332.00
2022-07-25T05:05:26.412Z,2352.00
2022-07-25T05:06:26.426Z,2368.00
2022-07-25T05:07:26.391Z,2384.00
2022-07-25T05:08:26.383Z,2396.00
2022-07-25T05:09:26.367Z,2412.00
2022-07-25T05:10:26.447Z,2428.00
2022-07-25T05:11:26.343Z,2448.00
2022-07-25T05:12:26.367Z,2472.00
2022-07-25T05:13:26.313Z,2496.00
2022-07-25T05:14:26.313Z,2520.00
2022-07-25T05:15:26.286Z,2552.00
2022-07-25T05:16:26.325Z,2580.00
2022-07-25T05:17:26.256Z,2608.00
2022-07-25T05:18:26.276Z,2640.00
2022-07-25T05:19:26.235Z,2648.00
2022-07-25T05:20:26.226Z,2656.00
2022-07-25T05:21:26.485Z,2656.00
2022-07-25T05:22:28.400Z,2648.00
2022-07-25T05:23:26.197Z,2648.00
2022-07-25T05:24:26.194Z,2656.00
2022-07-25T05:25:26.155Z,2640.00
2022-07-25T05:26:26.155Z,2648.00
2022-07-25T05:27:26.147Z,2656.00
2022-07-25T05:28:26.137Z,2672.00
2022-07-25T05:29:26.114Z,2680.00
2022-07-25T05:30:26.108Z,2672.00
2022-07-25T05:31:26.148Z,2708.00
2022-07-25T05:32:26.387Z,2788.00
2022-07-25T05:33:26.066Z,2824.00
2022-07-25T05:34:26.050Z,2840.00
2022-07-25T05:35:26.029Z,2864.00
2022-07-25T05:36:26.030Z,2896.00
2022-07-25T05:37:26.011Z,2936.00
2022-07-25T05:38:26.013Z,2976.00
2022-07-25T05:39:25.984Z,3008.00
2022-07-25T05:40:25.976Z,3036.00
2022-07-25T05:41:25.951Z,3076.00
2022-07-25T05:42:25.959Z,3092.00
2022-07-25T05:43:26.029Z,3120.00
2022-07-25T05:44:25.929Z,3152.00
2022-07-25T05:45:25.911Z,3168.00
2022-07-25T05:46:25.948Z,3204.00
2022-07-25T05:47:25.910Z,3240.00
2022-07-25T05:48:25.952Z,3272.00
2022-07-25T05:49:25.854Z,3324.00
2022-07-25T05:50:25.842Z,3396.00
2022-07-25T05:51:27.670Z,3496.00
2022-07-25T05:52:25.821Z,3616.00
2022-07-25T05:53:25.808Z,3724.00
2022-07-25T05:54:25.846Z,3792.00
2022-07-25T05:55:25.782Z,3820.00
2022-07-25T05:56:25.764Z,3808.00
2022-07-25T05:57:25.752Z,3692.00
2022-07-25T05:58:29.722Z,3668.00
2022-07-25T05:59:25.728Z,3652.00
2022-07-25T06:00:25.725Z,3696.00
2022-07-25T06:01:25.753Z,3732.00
2022-07-25T06:02:25.845Z,3804.00
2022-07-25T06:03:25.763Z,3936.00
2022-07-25T06:04:27.388Z,4052.00
2022-07-25T06:05:25.805Z,4112.00
2022-07-25T06:06:25.654Z,3984.00
2022-07-25T06:07:25.626Z,3968.00
2022-07-25T06:08:25.616Z,4052.00
2022-07-25T06:09:25.603Z,4128.00
2022-07-25T06:10:25.597Z,4128.00
2022-07-25T06:11:25.599Z,4116.00
2022-07-25T06:12:25.567Z,4068.00
2022-07-25T06:13:25.557Z,3988.00
2022-07-25T06:14:25.550Z,3884.00
2022-07-25T06:15:27.061Z,3776.00
2022-07-25T06:16:25.697Z,3720.00
2022-07-25T06:17:30.492Z,3716.00
2022-07-25T06:18:26.501Z,3740.00
2022-07-25T06:19:25.486Z,3784.00
2022-07-25T06:20:25.468Z,3836.00
2022-07-25T06:21:25.447Z,3924.00
2022-07-25T06:22:25.437Z,4020.00
2022-07-25T06:23:27.571Z,4044.00
2022-07-25T06:24:25.408Z,4100.00
2022-07-25T06:25:25.413Z,4184.00
2022-07-25T06:26:25.398Z,4208.00
2022-07-25T06:27:29.256Z,4416.00
2022-07-25T06:28:25.359Z,4600.00
2022-07-25T06:29:25.349Z,4796.00
2022-07-25T06:30:25.376Z,5024.00
2022-07-25T06:31:25.379Z,5260.00
2022-07-25T06:32:25.299Z,5512.00
2022-07-25T06:33:25.294Z,5756.00
2022-07-25T06:34:28.647Z,5968.00
2022-07-25T06:35:25.262Z,6180.00
2022-07-25T06:36:32.045Z,6368.00
2022-07-25T06:37:26.302Z,6512.00
2022-07-25T06:38:25.241Z,6672.00
2022-07-25T06:39:25.221Z,6856.00
2022-07-25T06:40:25.314Z,7116.00
2022-07-25T06:41:25.193Z,7408.00
2022-07-25T06:42:25.173Z,7796.00
2022-07-25T06:43:25.162Z,8292.00
2022-07-25T06:44:25.154Z,8728.00
2022-07-25T06:45:25.510Z,9132.00
2022-07-25T06:46:25.158Z,9464.00
2022-07-25T06:47:25.122Z,9720.00
2022-07-25T06:48:25.232Z,9908.00
2022-07-25T06:49:25.094Z,10072.00
2022-07-25T06:50:25.114Z,10236.00
2022-07-25T06:51:25.065Z,10412.00
2022-07-25T06:52:25.050Z,10500.00
2022-07-25T06:53:25.035Z,10424.00
2022-07-25T06:54:25.017Z,10252.00
2022-07-25T06:55:25.018Z,10068.00
2022-07-25T06:56:24.994Z,9720.00
2022-07-25T06:57:24.976Z,9088.00
2022-07-25T06:58:25.926Z,8228.00
2022-07-25T06:59:25.135Z,7528.00
2022-07-25T07:00:25.031Z,7252.00
2022-07-25T07:01:25.025Z,7044.00
2022-07-25T07:02:24.927Z,6980.00
2022-07-25T07:03:25.003Z,7076.00
2022-07-25T07:04:24.887Z,7036.00
2022-07-25T07:05:24.886Z,7056.00
2022-07-25T07:06:25.118Z,7024.00
2022-07-25T07:07:24.866Z,7264.00
2022-07-25T07:08:24.863Z,7416.00
2022-07-25T07:09:24.828Z,7476.00
2022-07-25T07:10:24.978Z,7812.00
2022-07-25T07:11:24.813Z,8520.00
2022-07-25T07:12:24.790Z,9348.00
2022-07-25T07:13:24.830Z,9928.00
2022-07-25T07:14:24.769Z,10368.00
2022-07-25T07:15:24.776Z,10836.00
2022-07-25T07:16:24.819Z,11152.00
2022-07-25T07:17:24.733Z,11340.00
2022-07-25T07:18:24.729Z,11376.00
2022-07-25T07:19:24.711Z,11280.00
2022-07-25T07:20:24.693Z,11176.00
2022-07-25T07:21:25.032Z,11200.00
2022-07-25T07:22:24.675Z,11272.00
2022-07-25T07:23:24.906Z,11116.00
2022-07-25T07:24:24.886Z,10428.00
2022-07-25T07:25:24.622Z,9848.00
2022-07-25T07:26:24.626Z,9504.00
2022-07-25T07:27:24.614Z,9100.00
2022-07-25T07:28:24.610Z,8784.00
2022-07-25T07:29:24.584Z,8412.00
2022-07-25T07:30:37.584Z,8024.00
2022-07-25T07:31:25.666Z,7724.00
2022-07-25T07:32:24.604Z,7816.00
2022-07-25T07:33:24.545Z,7652.00
2022-07-25T07:34:24.526Z,7692.00
2022-07-25T07:35:24.509Z,7816.00
2022-07-25T07:36:24.495Z,7984.00
2022-07-25T07:37:24.497Z,8028.00
2022-07-25T07:38:24.468Z,7972.00
2022-07-25T07:39:24.477Z,8100.00
2022-07-25T07:40:24.447Z,8328.00
2022-07-25T07:41:24.438Z,8588.00
2022-07-25T07:42:24.609Z,8724.00
2022-07-25T07:43:29.699Z,9136.00
2022-07-25T07:44:25.387Z,9428.00
2022-07-25T07:45:24.389Z,9820.00
2022-07-25T07:46:24.414Z,10248.00
2022-07-25T07:47:24.440Z,10460.00
2022-07-25T07:48:24.352Z,10700.00
2022-07-25T07:49:24.454Z,10768.00
2022-07-25T07:50:24.330Z,11020.00
2022-07-25T07:51:24.313Z,11516.00
2022-07-25T07:52:24.299Z,11740.00
2022-07-25T07:53:24.621Z,11740.00
2022-07-25T07:54:24.282Z,11528.00
2022-07-25T07:55:24.260Z,11408.00
2022-07-25T07:56:24.250Z,11348.00
2022-07-25T07:57:24.233Z,11512.00
2022-07-25T07:58:24.236Z,11632.00
2022-07-25T07:59:24.207Z,12020.00
2022-07-25T08:00:24.191Z,12580.00
2022-07-25T08:01:24.254Z,13028.00
2022-07-25T08:02:24.219Z,13188.00
2022-07-25T08:03:24.234Z,12856.00
2022-07-25T08:04:24.238Z,12436.00
2022-07-25T08:05:24.213Z,12052.00
2022-07-25T08:06:24.114Z,11560.00
2022-07-25T08:07:24.114Z,11084.00
2022-07-25T08:08:27.791Z,10664.00
2022-07-25T08:09:25.085Z,10508.00
2022-07-25T08:10:24.072Z,10496.00
2022-07-25T08:11:24.068Z,10564.00
2022-07-25T08:12:24.046Z,10564.00
2022-07-25T08:13:24.041Z,10540.00
2022-07-25T08:14:24.026Z,10760.00
2022-07-25T08:15:24.119Z,11196.00
2022-07-25T08:16:24.066Z,11800.00
2022-07-25T08:17:28.472Z,12288.00
2022-07-25T08:18:23.968Z,12596.00
2022-07-25T08:19:23.958Z,12652.00
2022-07-25T08:20:39.488Z,12784.00
2022-07-25T08:21:24.939Z,12852.00
2022-07-25T08:22:23.921Z,13204.00
2022-07-25T08:23:23.909Z,13320.00
2022-07-25T08:24:23.898Z,13348.00
2022-07-25T08:25:23.878Z,13404.00
2022-07-25T08:26:24.131Z,13180.00
2022-07-25T08:27:23.861Z,12692.00
2022-07-25T08:28:23.852Z,12452.00
2022-07-25T08:29:28.011Z,12532.00
2022-07-25T08:30:23.824Z,12224.00
2022-07-25T08:31:23.883Z,11688.00
2022-07-25T08:32:23.792Z,10964.00
2022-07-25T08:33:23.795Z,10272.00
2022-07-25T08:34:23.772Z,9656.00
2022-07-25T08:35:23.771Z,9184.00
2022-07-25T08:36:23.753Z,8840.00
2022-07-25T08:37:24.123Z,8384.00
2022-07-25T08:38:23.724Z,7968.00
2022-07-25T08:39:23.715Z,7488.00
2022-07-25T08:40:23.695Z,7216.00
2022-07-25T08:41:24.727Z,7120.00
2022-07-25T08:42:23.664Z,7132.00
2022-07-25T08:43:23.666Z,8024.00
2022-07-25T08:44:23.649Z,8676.00
2022-07-25T08:45:23.628Z,8980.00
2022-07-25T08:46:23.667Z,9360.00
2022-07-25T08:47:23.649Z,10200.00
2022-07-25T08:48:23.705Z,11276.00
2022-07-25T08:49:23.598Z,12348.00
2022-07-25T08:50:23.568Z,13568.00
2022-07-25T08:51:23.557Z,14676.00
2022-07-25T08:52:23.548Z,15016.00
2022-07-25T08:53:38.918Z,14100.00
2022-07-25T08:54:24.526Z,14020.00
2022-07-25T08:55:23.507Z,13924.00
2022-07-25T08:56:23.517Z,13580.00
2022-07-25T08:57:23.479Z,13052.00
2022-07-25T08:58:23.471Z,13096.00
2022-07-25T08:59:23.582Z,13472.00
2022-07-25T09:00:23.450Z,13924.00
2022-07-25T09:01:23.500Z,13144.00
2022-07-25T09:02:23.565Z,13464.00
2022-07-25T09:03:23.441Z,14412.00
2022-07-25T09:04:23.407Z,14668.00
2022-07-25T09:05:23.391Z,15516.00
2022-07-25T09:06:23.371Z,16888.00
2022-07-25T09:07:23.361Z,18560.00
2022-07-25T09:08:23.341Z,19712.00
2022-07-25T09:09:23.369Z,20064.00
2022-07-25T09:10:23.533Z,19744.00
2022-07-25T09:11:23.303Z,19008.00
2022-07-25T09:12:26.038Z,18816.00
2022-07-25T09:13:23.293Z,18944.00
2022-07-25T09:14:23.275Z,17888.00
2022-07-25T09:15:23.265Z,16724.00
2022-07-25T09:16:23.306Z,15872.00
2022-07-25T09:17:23.779Z,15536.00
2022-07-25T09:18:23.229Z,15212.00
2022-07-25T09:19:23.228Z,15288.00
2022-07-25T09:20:23.195Z,15272.00
2022-07-25T09:21:23.596Z,15936.00
2022-07-25T09:22:23.176Z,17120.00
2022-07-25T09:23:23.179Z,18528.00
2022-07-25T09:24:23.166Z,19200.00
2022-07-25T09:25:23.136Z,19232.00
2022-07-25T09:26:23.143Z,19680.00
2022-07-25T09:27:23.110Z,20448.00
2022-07-25T09:28:23.096Z,21408.00
2022-07-25T09:29:23.085Z,22400.00
2022-07-25T09:30:23.068Z,22880.00
2022-07-25T09:31:23.093Z,22976.00
2022-07-25T09:32:23.238Z,22688.00
2022-07-25T09:33:23.039Z,22560.00
2022-07-25T09:34:25.606Z,23008.00
2022-07-25T09:35:23.008Z,23168.00
2022-07-25T09:36:23.005Z,22976.00
2022-07-25T09:37:22.989Z,22848.00
2022-07-25T09:38:22.971Z,22880.00
2022-07-25T09:39:23.032Z,22912.00
2022-07-25T09:40:22.960Z,23648.00
2022-07-25T09:41:22.945Z,24416.00
2022-07-25T09:42:22.926Z,24448.00
2022-07-25T09:43:23.011Z,24992.00
2022-07-25T09:44:22.909Z,25024.00
2022-07-25T09:45:22.899Z,25504.00
2022-07-25T09:46:22.945Z,25600.00
2022-07-25T09:47:22.871Z,24960.00
2022-07-25T09:48:22.853Z,24992.00
2022-07-25T09:49:22.841Z,24992.00
2022-07-25T09:50:22.833Z,24320.00
2022-07-25T09:51:22.828Z,23456.00
2022-07-25T09:52:22.801Z,22560.00
2022-07-25T09:53:22.807Z,21856.00
2022-07-25T09:54:22.807Z,21952.00
2022-07-25T09:55:22.765Z,22240.00
2022-07-25T09:56:22.759Z,22720.00
2022-07-25T09:57:22.766Z,23200.00
2022-07-25T09:58:22.737Z,24576.00
2022-07-25T09:59:22.727Z,27040.00
2022-07-25T10:00:22.722Z,29152.00
2022-07-25T10:01:22.763Z,30592.00
2022-07-25T10:02:22.789Z,30112.00
2022-07-25T10:03:22.677Z,28896.00
2022-07-25T10:04:22.658Z,24480.00
2022-07-25T10:05:22.979Z,22368.00
2022-07-25T10:06:22.637Z,22112.00
2022-07-25T10:07:22.632Z,21600.00
2022-07-25T10:08:22.609Z,20960.00
2022-07-25T10:09:22.605Z,20928.00
2022-07-25T10:10:22.593Z,20928.00
2022-07-25T10:11:22.572Z,20512.00
2022-07-25T10:12:22.550Z,19904.00
2022-07-25T10:13:22.563Z,18976.00
2022-07-25T10:14:22.553Z,17440.00
2022-07-25T10:15:22.533Z,16052.00
2022-07-25T10:16:22.841Z,15136.00
2022-07-25T10:17:22.559Z,14440.00
2022-07-25T10:18:22.482Z,13688.00
2022-07-25T10:19:22.492Z,13140.00
2022-07-25T10:20:22.465Z,12956.00
2022-07-25T10:21:26.798Z,13396.00
2022-07-25T10:22:40.012Z,14396.00
2022-07-25T10:23:23.424Z,15388.00
2022-07-25T10:24:22.405Z,16672.00
2022-07-25T10:25:22.415Z,17920.00
2022-07-25T10:26:22.388Z,18944.00
2022-07-25T10:27:22.484Z,19872.00
2022-07-25T10:28:22.376Z,20128.00
2022-07-25T10:29:22.355Z,20288.00
2022-07-25T10:30:22.338Z,20608.00
2022-07-25T10:31:22.456Z,21152.00
2022-07-25T10:32:22.306Z,22528.00
2022-07-25T10:33:22.303Z,23616.00
2022-07-25T10:34:22.316Z,24352.00
2022-07-25T10:35:22.288Z,26048.00
2022-07-25T10:36:22.279Z,29696.00
2022-07-25T10:37:22.258Z,27232.00
2022-07-25T10:38:22.338Z,26816.00
2022-07-25T10:39:22.235Z,25248.00
2022-07-25T10:40:22.218Z,22720.00
2022-07-25T10:41:22.210Z,22688.00
2022-07-25T10:42:22.200Z,24960.00
2022-07-25T10:43:22.190Z,29280.00
2022-07-25T10:44:22.199Z,39744.00
2022-07-25T10:45:22.162Z,32736.00
2022-07-25T10:46:22.219Z,35200.00
2022-07-25T10:47:22.131Z,26464.00
2022-07-25T10:48:22.120Z,24160.00
2022-07-25T10:49:31.091Z,24544.00
2022-07-25T10:50:40.421Z,27520.00
2022-07-25T10:51:23.081Z,29632.00
2022-07-25T10:52:22.063Z,49984.00
2022-07-25T10:53:22.053Z,88448.00
2022-07-25T10:54:22.051Z,76064.00
2022-07-25T10:55:22.046Z,63360.00
2022-07-25T10:56:22.024Z,51584.00
2022-07-25T10:57:22.014Z,61120.00
2022-07-25T10:58:21.995Z,63648.00
2022-07-25T10:59:21.996Z,82464.00
2022-07-25T11:00:22.255Z,57440.00
2022-07-25T11:01:22.032Z,34496.00
2022-07-25T11:02:21.969Z,77824.00
2022-07-25T11:03:21.946Z,86720.00
2022-07-25T11:04:21.926Z,81088.00
2022-07-25T11:05:21.918Z,74336.00
2022-07-25T11:06:21.897Z,79808.00
2022-07-25T11:07:21.906Z,89152.00
2022-07-25T11:08:22.763Z,90080.00
2022-07-25T11:09:26.934Z,86592.00
2022-07-25T11:10:23.171Z,89504.00
2022-07-25T11:11:21.848Z,76960.00
2022-07-25T11:12:21.842Z,47936.00
2022-07-25T11:13:21.853Z,32928.00
2022-07-25T11:14:21.817Z,22976.00
2022-07-25T11:15:21.809Z,21408.00
2022-07-25T11:16:21.816Z,20128.00
2022-07-25T11:17:21.789Z,19456.00
2022-07-25T11:18:21.760Z,19104.00
2022-07-25T11:19:21.751Z,18976.00
2022-07-25T11:20:21.743Z,19040.00
2022-07-25T11:21:21.862Z,19008.00
2022-07-25T11:22:21.711Z,19040.00
2022-07-25T11:23:21.725Z,19136.00
2022-07-25T11:24:21.693Z,19520.00
2022-07-25T11:25:21.701Z,20192.00
2022-07-25T11:26:21.672Z,21824.00
2022-07-25T11:27:21.658Z,26176.00
2022-07-25T11:28:21.649Z,43392.00
2022-07-25T11:29:21.635Z,53568.00
2022-07-25T11:30:21.615Z,44928.00
2022-07-25T11:31:21.644Z,44576.00
2022-07-25T11:32:21.671Z,38400.00
2022-07-25T11:33:21.592Z,47808.00
2022-07-25T11:34:21.588Z,29440.00
2022-07-25T11:35:21.567Z,27552.00
2022-07-25T11:36:21.588Z,25376.00
2022-07-25T11:37:21.556Z,23968.00
2022-07-25T11:38:21.537Z,23264.00
2022-07-25T11:39:21.533Z,22976.00
2022-07-25T11:40:21.496Z,22272.00
2022-07-25T11:41:21.488Z,21632.00
2022-07-25T11:42:21.489Z,20640.00
2022-07-25T11:43:21.548Z,19424.00
2022-07-25T11:44:21.448Z,17984.00
2022-07-25T11:45:21.455Z,16832.00
2022-07-25T11:46:21.488Z,15180.00
2022-07-25T11:47:21.422Z,13680.00
2022-07-25T11:48:21.419Z,12232.00
2022-07-25T11:49:21.443Z,10968.00
2022-07-25T11:50:21.381Z,9744.00
2022-07-25T11:51:21.371Z,9036.00
2022-07-25T11:52:21.362Z,9020.00
2022-07-25T11:53:21.354Z,9040.00
2022-07-25T11:54:21.701Z,8816.00
2022-07-25T11:55:21.327Z,8536.00
2022-07-25T11:57:22.292Z,7992.00
2022-07-25T11:58:21.302Z,7540.00
2022-07-25T11:59:21.274Z,7228.00
2022-07-25T12:00:21.282Z,7300.00
2022-07-25T12:01:21.253Z,7564.00
2022-07-25T12:02:21.365Z,7912.00
2022-07-25T12:03:21.373Z,8016.00
2022-07-25T12:04:21.217Z,8212.00
2022-07-25T12:05:21.284Z,8584.00
2022-07-25T12:06:21.207Z,8936.00
2022-07-25T12:07:21.175Z,9308.00
2022-07-25T12:08:21.178Z,9672.00
2022-07-25T12:09:21.162Z,10052.00
2022-07-25T12:10:21.147Z,10404.00
2022-07-25T12:11:21.126Z,10876.00
2022-07-25T12:12:21.107Z,11336.00
2022-07-25T12:13:21.098Z,11736.00
2022-07-25T12:14:21.088Z,12664.00
2022-07-25T12:15:21.071Z,14444.00
2022-07-25T12:16:21.324Z,17856.00
2022-07-25T12:17:21.049Z,24224.00
2022-07-25T12:18:21.047Z,36640.00